createdAt,value
2018-12-08T00:00:17.632Z,1.90
2018-12-08T00:02:47.677Z,1.90
2018-12-08T00:05:17.784Z,1.30
2018-12-08T00:07:47.813Z,1.22
2018-12-08T00:10:17.836Z,1.10
2018-12-08T00:12:47.917Z,1.00
2018-12-08T00:15:17.907Z,1.10
2018-12-08T00:17:47.877Z,0.98
2018-12-08T00:20:17.867Z,1.30
2018-12-08T00:22:47.909Z,1.20
2018-12-08T00:25:17.821Z,1.10
2018-12-08T00:27:47.836Z,1.40
2018-12-08T00:30:34.807Z,1.22
2018-12-08T00:33:04.860Z,1.52
2018-12-08T00:35:34.992Z,1.47
2018-12-08T00:38:05.109Z,1.80
2018-12-08T00:40:35.303Z,1.60
2018-12-08T00:43:05.459Z,1.70
2018-12-08T00:45:35.540Z,2.10
2018-12-08T00:48:05.568Z,1.47
2018-12-08T00:50:35.581Z,2.05
2018-12-08T00:53:05.604Z,1.57
2018-12-08T00:55:35.716Z,1.80
2018-12-08T00:58:05.745Z,1.75
2018-12-08T01:00:35.865Z,2.22
2018-12-08T01:03:06.090Z,1.70
2018-12-08T01:05:36.146Z,1.65
2018-12-08T01:08:06.218Z,1.42
2018-12-08T01:10:36.332Z,1.85
2018-12-08T01:13:06.233Z,1.90
2018-12-08T01:15:36.268Z,2.47
2018-12-08T01:18:06.182Z,1.60
2018-12-08T01:20:36.187Z,2.10
2018-12-08T01:23:06.245Z,2.42
2018-12-08T01:25:36.147Z,1.98
2018-12-08T01:28:06.249Z,2.00
2018-12-08T01:30:36.132Z,2.00
2018-12-08T01:33:06.172Z,2.02
2018-12-08T01:35:36.291Z,1.95
2018-12-08T01:38:06.350Z,2.25
2018-12-08T01:40:36.428Z,2.35
2018-12-08T01:43:06.562Z,2.12
2018-12-08T01:45:36.567Z,1.95
2018-12-08T01:48:06.567Z,1.67
2018-12-08T01:50:36.616Z,1.62
2018-12-08T01:53:06.715Z,1.65
2018-12-08T01:55:36.849Z,2.55
2018-12-08T01:58:06.960Z,1.90
2018-12-08T02:00:37.379Z,2.10
2018-12-08T02:03:07.496Z,2.20
2018-12-08T02:05:37.391Z,1.87
2018-12-08T02:08:07.421Z,2.08
2018-12-08T02:10:38.471Z,2.10
2018-12-08T02:13:08.478Z,2.20
2018-12-08T02:15:38.457Z,1.87
2018-12-08T02:18:08.506Z,1.82
2018-12-08T02:20:38.490Z,2.50
2018-12-08T02:23:08.543Z,2.50
2018-12-08T02:25:38.565Z,2.33
2018-12-08T02:28:08.563Z,2.65
2018-12-08T02:30:38.547Z,2.33
2018-12-08T02:33:08.535Z,2.17
2018-12-08T02:35:38.616Z,2.02
2018-12-08T02:38:08.604Z,2.22
2018-12-08T02:40:38.762Z,2.02
2018-12-08T02:43:08.799Z,2.25
2018-12-08T02:45:38.905Z,2.10
2018-12-08T02:48:08.929Z,2.25
2018-12-08T02:50:38.800Z,2.25
2018-12-08T02:53:08.837Z,2.27
2018-12-08T02:55:38.851Z,2.00
2018-12-08T02:58:08.966Z,2.25
2018-12-08T03:00:39.076Z,1.90
2018-12-08T03:03:09.020Z,2.00
2018-12-08T03:05:38.959Z,2.45
2018-12-08T03:08:09.035Z,1.92
2018-12-08T03:10:39.055Z,1.75
2018-12-08T03:13:09.164Z,2.17
2018-12-08T03:15:39.112Z,2.02
2018-12-08T03:18:09.053Z,2.37
2018-12-08T03:20:39.010Z,1.87
2018-12-08T03:23:08.995Z,2.10
2018-12-08T03:25:39.043Z,1.82
2018-12-08T03:28:08.960Z,2.08
2018-12-08T03:30:38.877Z,2.05
2018-12-08T03:33:08.865Z,2.17
2018-12-08T03:35:38.948Z,1.80
2018-12-08T03:38:09.024Z,2.15
2018-12-08T03:40:38.901Z,2.17
2018-12-08T03:43:08.967Z,2.10
2018-12-08T03:45:38.936Z,2.10
2018-12-08T03:48:08.976Z,1.82
2018-12-08T03:50:38.922Z,1.75
2018-12-08T03:53:08.814Z,1.90
2018-12-08T03:55:38.831Z,2.25
2018-12-08T03:58:08.848Z,1.72
2018-12-08T04:00:38.863Z,1.32
2018-12-08T04:03:09.088Z,1.62
2018-12-08T04:05:39.003Z,1.60
2018-12-08T04:08:09.009Z,1.77
2018-12-08T04:10:39.027Z,1.60
2018-12-08T04:13:09.040Z,1.32
2018-12-08T04:15:39.065Z,1.67
2018-12-08T04:18:09.075Z,2.00
2018-12-08T04:20:39.090Z,1.77
2018-12-08T04:23:09.128Z,1.62
2018-12-08T04:25:39.135Z,1.87
2018-12-08T04:28:09.146Z,1.57
2018-12-08T04:30:39.156Z,1.70
2018-12-08T04:33:09.102Z,1.80
2018-12-08T04:35:38.995Z,2.10
2018-12-08T04:38:09.103Z,1.80
2018-12-08T04:40:39.034Z,2.12
2018-12-08T04:43:09.133Z,1.87
2018-12-08T04:45:39.085Z,2.00
2018-12-08T04:48:09.062Z,1.90
2018-12-08T04:50:38.882Z,2.10
2018-12-08T04:53:08.994Z,1.98
2018-12-08T04:55:38.931Z,2.10
2018-12-08T04:58:09.051Z,1.77
2018-12-08T05:00:39.083Z,1.95
2018-12-08T05:03:09.083Z,2.02
2018-12-08T05:05:38.974Z,2.35
2018-12-08T05:08:08.911Z,1.87
2018-12-08T05:10:38.899Z,1.75
2018-12-08T05:13:08.939Z,1.60
2018-12-08T05:15:39.086Z,1.85
2018-12-08T05:18:09.030Z,1.87
2018-12-08T05:20:39.176Z,1.75
2018-12-08T05:23:09.164Z,2.08
2018-12-08T05:25:39.211Z,1.77
2018-12-08T05:28:09.227Z,1.92
2018-12-08T05:30:39.222Z,1.90
2018-12-08T05:33:09.250Z,1.85
2018-12-08T05:35:39.244Z,1.52
2018-12-08T05:38:09.277Z,1.55
2018-12-08T05:40:39.307Z,1.57
2018-12-08T05:43:09.275Z,1.67
2018-12-08T05:45:39.267Z,1.70
2018-12-08T05:48:09.346Z,1.20
2018-12-08T05:50:39.371Z,1.77
2018-12-08T05:53:09.382Z,2.05
2018-12-08T05:55:39.402Z,1.52
2018-12-08T05:58:09.414Z,1.42
2018-12-08T06:00:39.505Z,1.42
2018-12-08T06:03:09.479Z,1.55
2018-12-08T06:05:39.687Z,1.60
2018-12-08T06:08:09.697Z,1.47
2018-12-08T06:10:39.715Z,1.65
2018-12-08T06:13:09.703Z,1.30
2018-12-08T06:15:39.699Z,1.30
2018-12-08T06:18:09.693Z,1.50
2018-12-08T06:20:39.669Z,1.50
2018-12-08T06:23:09.687Z,1.42
2018-12-08T06:25:40.427Z,1.30
2018-12-08T06:28:18.310Z,1.87
2018-12-08T06:30:48.355Z,1.35
2018-12-08T06:33:18.342Z,1.30
2018-12-08T06:35:48.483Z,1.30
2018-12-08T06:38:18.490Z,1.60
2018-12-08T06:40:48.427Z,1.50
2018-12-08T06:43:18.397Z,1.72
2018-12-08T06:45:48.402Z,1.57
2018-12-08T06:48:18.449Z,1.20
2018-12-08T06:50:48.424Z,1.30
2018-12-08T06:53:18.428Z,1.60
2018-12-08T06:55:48.506Z,2.67
2018-12-08T06:58:18.467Z,1.37
2018-12-08T07:00:48.538Z,1.30
2018-12-08T07:03:18.558Z,1.02
2018-12-08T07:05:48.534Z,1.12
2018-12-08T07:08:18.514Z,1.20
2018-12-08T07:10:48.763Z,1.72
2018-12-08T07:13:18.749Z,1.35
2018-12-08T07:15:48.738Z,1.77
2018-12-08T07:18:18.748Z,1.27
2018-12-08T07:20:48.763Z,1.30
2018-12-08T07:23:18.775Z,1.10
2018-12-08T07:25:48.793Z,1.10
2018-12-08T07:28:18.674Z,1.07
2018-12-08T07:30:48.740Z,1.20
2018-12-08T07:33:18.734Z,1.75
2018-12-08T07:35:48.787Z,1.10
2018-12-08T07:38:18.763Z,0.88
2018-12-08T07:40:48.804Z,0.85
2018-12-08T07:43:18.870Z,0.70
2018-12-08T07:45:49.261Z,0.85
2018-12-08T07:48:19.346Z,0.57
2018-12-08T07:50:49.506Z,0.80
2018-12-08T07:53:19.578Z,0.68
2018-12-08T07:55:49.513Z,0.80
2018-12-08T07:58:19.486Z,0.62
2018-12-08T08:00:49.459Z,0.80
2018-12-08T08:03:19.402Z,0.80
2018-12-08T08:05:49.386Z,0.55
2018-12-08T08:08:19.230Z,0.50
2018-12-08T08:10:49.290Z,0.85
2018-12-08T08:13:19.316Z,0.70
2018-12-08T08:15:49.500Z,0.70
2018-12-08T08:18:19.370Z,0.80
2018-12-08T08:20:49.362Z,0.70
2018-12-08T08:23:19.266Z,1.00
2018-12-08T08:25:49.287Z,0.78
2018-12-08T08:28:19.223Z,0.85
2018-12-08T08:30:49.212Z,0.88
2018-12-08T08:33:19.215Z,0.80
2018-12-08T08:35:49.993Z,0.70
2018-12-08T08:38:20.008Z,0.80
2018-12-08T08:40:50.094Z,0.70
2018-12-08T08:43:20.022Z,0.78
2018-12-08T08:45:50.002Z,0.60
2018-12-08T08:48:19.952Z,0.80
2018-12-08T08:50:49.774Z,0.80
2018-12-08T08:53:19.707Z,0.70
2018-12-08T08:55:49.775Z,0.85
2018-12-08T08:58:19.708Z,0.80
2018-12-08T09:00:49.721Z,0.60
2018-12-08T09:03:19.635Z,0.75
2018-12-08T09:05:49.521Z,0.75
2018-12-08T09:08:19.570Z,0.72
2018-12-08T09:10:49.687Z,0.80
2018-12-08T09:13:20.726Z,0.70
2018-12-08T09:15:50.730Z,0.65
2018-12-08T09:18:20.739Z,0.80
2018-12-08T09:20:50.776Z,0.70
2018-12-08T09:23:20.949Z,0.70
2018-12-08T09:25:50.926Z,0.80
2018-12-08T09:28:20.939Z,0.80
2018-12-08T09:30:50.925Z,0.80
2018-12-08T09:33:20.827Z,0.62
2018-12-08T09:35:50.886Z,0.90
2018-12-08T09:38:20.843Z,0.80
2018-12-08T09:40:50.830Z,0.82
2018-12-08T09:43:20.810Z,0.78
2018-12-08T09:45:50.807Z,0.60
2018-12-08T09:48:20.863Z,0.80
2018-12-08T09:50:50.793Z,0.83
2018-12-08T09:53:21.286Z,0.77
2018-12-08T09:55:51.323Z,1.20
2018-12-08T09:58:21.436Z,5.40
2018-12-08T10:00:51.444Z,3.50
2018-12-08T10:03:21.441Z,1.17
2018-12-08T10:05:51.466Z,2.07
2018-12-08T10:08:21.616Z,0.90
2018-12-08T10:10:51.519Z,0.50
2018-12-08T10:13:21.396Z,0.70
2018-12-08T10:15:51.342Z,0.70
2018-12-08T10:18:21.462Z,0.70
2018-12-08T10:20:51.578Z,0.90
2018-12-08T10:23:21.479Z,0.67
2018-12-08T10:25:51.509Z,0.80
2018-12-08T10:28:21.435Z,0.70
2018-12-08T10:30:51.369Z,0.80
2018-12-08T10:33:21.411Z,0.50
2018-12-08T10:35:51.363Z,0.50
2018-12-08T10:38:21.354Z,0.70
2018-12-08T10:40:51.462Z,0.60
2018-12-08T10:43:21.548Z,0.50
2018-12-08T10:45:51.535Z,0.73
2018-12-08T10:48:21.530Z,0.57
2018-12-08T10:50:51.574Z,0.67
2018-12-08T10:53:23.531Z,0.50
2018-12-08T10:55:53.611Z,0.83
2018-12-08T10:58:23.586Z,4.03
2018-12-08T11:00:58.866Z,1.00
2018-12-08T11:03:35.484Z,1.70
2018-12-08T11:06:05.458Z,2.12
2018-12-08T11:08:35.455Z,0.90
2018-12-08T11:11:05.435Z,1.20
2018-12-08T11:13:35.437Z,0.60
2018-12-08T11:16:05.454Z,1.00
2018-12-08T11:18:35.568Z,0.50
2018-12-08T11:21:05.572Z,0.80
2018-12-08T11:23:35.598Z,0.78
2018-12-08T11:26:05.615Z,0.70
2018-12-08T11:28:35.627Z,0.50
2018-12-08T11:31:05.640Z,0.60
2018-12-08T11:33:35.667Z,0.72
2018-12-08T11:36:05.673Z,0.80
2018-12-08T11:38:35.772Z,0.62
2018-12-08T11:41:05.782Z,0.60
2018-12-08T11:43:35.784Z,0.70
2018-12-08T11:46:05.850Z,0.42
2018-12-08T11:48:35.795Z,0.70
2018-12-08T11:51:05.788Z,0.47
2018-12-08T11:53:35.738Z,0.90
2018-12-08T11:56:05.754Z,0.93
2018-12-08T11:58:35.731Z,0.90
2018-12-08T12:01:05.748Z,1.07
2018-12-08T12:03:35.660Z,2.00
2018-12-08T12:06:05.676Z,0.90
2018-12-08T12:08:35.699Z,0.98
2018-12-08T12:11:06.442Z,0.57
2018-12-08T12:13:36.466Z,0.70
2018-12-08T12:16:06.546Z,0.50
2018-12-08T12:18:37.352Z,0.85
2018-12-08T12:21:07.327Z,0.80
2018-12-08T12:23:37.342Z,0.70
2018-12-08T12:26:07.346Z,0.80
2018-12-08T12:28:37.363Z,0.88
2018-12-08T12:31:07.470Z,0.60
2018-12-08T12:33:37.503Z,0.60
2018-12-08T12:36:07.716Z,0.90
2018-12-08T12:38:37.841Z,0.93
2018-12-08T12:41:07.943Z,0.80
2018-12-08T12:43:37.900Z,0.62
2018-12-08T12:46:07.886Z,0.70
2018-12-08T12:48:37.836Z,0.60
2018-12-08T12:51:08.109Z,0.47
2018-12-08T12:53:38.036Z,0.60
2018-12-08T12:56:08.039Z,0.50
2018-12-08T12:58:37.958Z,0.53
2018-12-08T13:01:07.963Z,0.55
2018-12-08T13:03:37.989Z,0.60
2018-12-08T13:06:08.162Z,1.02
2018-12-08T13:08:38.094Z,0.53
2018-12-08T13:11:08.014Z,1.10
2018-12-08T13:13:37.942Z,0.88
2018-12-08T13:16:07.924Z,0.60
2018-12-08T13:18:37.858Z,0.50
2018-12-08T13:21:07.844Z,0.80
2018-12-08T13:23:37.831Z,0.50
2018-12-08T13:26:07.814Z,0.60
2018-12-08T13:28:37.851Z,0.60
2018-12-08T13:31:07.865Z,0.60
2018-12-08T13:33:37.879Z,0.70
2018-12-08T13:36:11.070Z,0.60
2018-12-08T13:38:41.108Z,0.90
2018-12-08T13:41:11.102Z,1.10
2018-12-08T13:43:44.854Z,0.57
2018-12-08T13:46:15.742Z,0.60
2018-12-08T13:48:45.924Z,0.40
2018-12-08T13:51:17.054Z,0.50
2018-12-08T13:53:48.151Z,0.50
2018-12-08T13:56:18.209Z,0.50
2018-12-08T13:58:48.306Z,0.42
2018-12-08T14:01:18.298Z,0.60
2018-12-08T14:03:48.315Z,0.50
2018-12-08T14:06:18.440Z,0.70
2018-12-08T14:08:48.459Z,0.85
2018-12-08T14:11:18.573Z,0.80
2018-12-08T14:13:48.587Z,0.70
2018-12-08T14:16:18.723Z,0.70
2018-12-08T14:18:48.822Z,0.93
2018-12-08T14:21:18.848Z,1.87
2018-12-08T14:23:48.958Z,1.65
2018-12-08T14:26:19.038Z,1.02
2018-12-08T14:28:49.111Z,1.35
2018-12-08T14:31:19.071Z,1.00
2018-12-08T14:33:49.006Z,0.93
2018-12-08T14:36:19.043Z,0.80
2018-12-08T14:38:57.327Z,1.00
2018-12-08T14:41:21.114Z,1.47
2018-12-08T14:43:51.136Z,0.98
2018-12-08T14:46:21.258Z,0.90
2018-12-08T14:48:51.759Z,1.00
2018-12-08T14:51:21.764Z,1.62
2018-12-08T14:53:51.815Z,1.40
2018-12-08T14:56:21.940Z,1.15
2018-12-08T14:58:52.867Z,1.20
2018-12-08T15:01:22.898Z,1.40
2018-12-08T15:03:52.844Z,1.50
2018-12-08T15:06:22.827Z,1.50
2018-12-08T15:08:53.195Z,1.85
2018-12-08T15:11:23.267Z,1.27
2018-12-08T15:13:53.286Z,1.52
2018-12-08T15:16:23.315Z,2.20
2018-12-08T15:18:53.310Z,2.30
2018-12-08T15:21:23.337Z,3.00
2018-12-08T15:23:53.367Z,2.40
2018-12-08T15:26:23.470Z,2.95
2018-12-08T15:28:53.486Z,3.47
2018-12-08T15:31:23.502Z,5.67
2018-12-08T15:33:53.720Z,2.75
2018-12-08T15:36:23.858Z,3.45
2018-12-08T15:38:53.951Z,2.50
2018-12-08T15:41:23.886Z,3.17
2018-12-08T15:43:53.958Z,3.15
2018-12-08T15:46:24.015Z,3.40
2018-12-08T15:48:54.215Z,3.62
2018-12-08T15:51:24.308Z,2.83
2018-12-08T15:53:54.366Z,2.80
2018-12-08T15:56:24.386Z,2.37
2018-12-08T15:58:54.401Z,2.70
2018-12-08T16:01:25.672Z,2.72
2018-12-08T16:03:55.766Z,1.72
2018-12-08T16:06:25.791Z,2.20
2018-12-08T16:08:55.807Z,2.65
2018-12-08T16:11:25.846Z,2.50
2018-12-08T16:13:55.799Z,2.30
2018-12-08T16:16:25.814Z,2.08
2018-12-08T16:18:55.885Z,2.15
2018-12-08T16:21:25.991Z,2.02
2018-12-08T16:23:56.090Z,2.15
2018-12-08T16:26:26.348Z,2.20
2018-12-08T16:28:56.334Z,2.30
2018-12-08T16:31:26.296Z,2.05
2018-12-08T16:33:56.258Z,2.92
2018-12-08T16:36:26.367Z,2.12
2018-12-08T16:38:56.324Z,2.30
2018-12-08T16:41:26.315Z,2.80
2018-12-08T16:43:56.252Z,6.30
2018-12-08T16:46:26.771Z,4.03
2018-12-08T16:48:56.866Z,3.67
2018-12-08T16:51:27.098Z,3.55
2018-12-08T16:53:59.304Z,2.45
2018-12-08T16:56:29.495Z,4.22
2018-12-08T16:58:59.463Z,2.83
2018-12-08T17:01:29.522Z,3.10
2018-12-08T17:03:59.626Z,3.77
2018-12-08T17:06:29.757Z,4.40
2018-12-08T17:08:59.769Z,3.70
2018-12-08T17:11:29.720Z,4.03
2018-12-08T17:13:59.795Z,2.90
2018-12-08T17:16:29.828Z,2.92
2018-12-08T17:18:59.859Z,3.22
2018-12-08T17:21:29.867Z,2.90
2018-12-08T17:23:59.967Z,2.58
2018-12-08T17:26:29.992Z,2.20
2018-12-08T17:29:00.068Z,2.17
2018-12-08T17:31:30.035Z,2.72
2018-12-08T17:34:00.042Z,2.37
2018-12-08T17:36:29.929Z,2.70
2018-12-08T17:38:59.918Z,3.05
2018-12-08T17:41:29.935Z,2.00
2018-12-08T17:43:59.823Z,2.47
2018-12-08T17:46:29.913Z,2.40
2018-12-08T17:48:59.939Z,1.60
2018-12-08T17:51:30.907Z,1.98
2018-12-08T17:54:02.814Z,2.12
2018-12-08T17:56:33.838Z,1.80
2018-12-08T17:59:04.066Z,1.60
2018-12-08T18:01:35.648Z,1.50
2018-12-08T18:04:05.659Z,1.77
2018-12-08T18:06:35.618Z,1.80
2018-12-08T18:09:08.070Z,2.33
2018-12-08T18:11:38.078Z,2.37
2018-12-08T18:14:08.216Z,2.25
2018-12-08T18:16:38.311Z,3.12
2018-12-08T18:19:08.420Z,2.87
2018-12-08T18:21:38.348Z,3.22
2018-12-08T18:24:08.453Z,3.02
2018-12-08T18:26:38.463Z,3.80
2018-12-08T18:29:08.597Z,3.22
2018-12-08T18:31:38.711Z,3.35
2018-12-08T18:34:08.815Z,4.12
2018-12-08T18:36:38.771Z,3.00
2018-12-08T18:39:08.860Z,3.45
2018-12-08T18:41:38.888Z,3.12
2018-12-08T18:44:08.993Z,3.10
2018-12-08T18:46:38.950Z,2.60
2018-12-08T18:49:09.026Z,2.72
2018-12-08T18:51:38.987Z,3.50
2018-12-08T18:54:09.048Z,3.17
2018-12-08T18:56:39.066Z,3.10
2018-12-08T18:59:09.084Z,3.17
2018-12-08T19:01:39.098Z,2.83
2018-12-08T19:04:09.133Z,3.47
2018-12-08T19:06:39.132Z,3.25
2018-12-08T19:09:09.156Z,3.52
2018-12-08T19:11:39.145Z,3.30
2018-12-08T19:14:09.192Z,3.33
2018-12-08T19:16:39.130Z,3.87
2018-12-08T19:19:09.126Z,3.08
2018-12-08T19:21:39.132Z,3.00
2018-12-08T19:24:09.243Z,3.40
2018-12-08T19:26:39.371Z,2.95
2018-12-08T19:29:09.378Z,2.55
2018-12-08T19:31:39.320Z,2.62
2018-12-08T19:34:09.306Z,2.42
2018-12-08T19:36:39.357Z,3.08
2018-12-08T19:39:10.402Z,2.92
2018-12-08T19:41:40.394Z,3.37
2018-12-08T19:44:10.507Z,2.90
2018-12-08T19:46:40.470Z,2.70
2018-12-08T19:49:10.475Z,3.33
2018-12-08T19:51:40.474Z,2.42
2018-12-08T19:54:10.582Z,2.60
2018-12-08T19:56:40.592Z,2.77
2018-12-08T19:59:10.553Z,2.72
2018-12-08T20:01:40.514Z,2.65
2018-12-08T20:04:10.443Z,3.22
2018-12-08T20:06:40.442Z,2.95
2018-12-08T20:09:10.460Z,2.55
2018-12-08T20:11:40.528Z,2.33
2018-12-08T20:14:10.599Z,2.10
2018-12-08T20:16:40.728Z,3.10
2018-12-08T20:19:10.830Z,3.47
2018-12-08T20:21:41.862Z,2.83
2018-12-08T20:24:11.899Z,3.10
2018-12-08T20:26:41.887Z,2.58
2018-12-08T20:29:11.781Z,2.87
2018-12-08T20:31:41.867Z,2.72
2018-12-08T20:34:11.855Z,2.20
2018-12-08T20:36:41.863Z,2.42
2018-12-08T20:39:11.859Z,2.60
2018-12-08T20:41:41.842Z,1.80
2018-12-08T20:44:11.835Z,1.60
2018-12-08T20:46:41.833Z,1.90
2018-12-08T20:49:11.713Z,2.00
2018-12-08T20:51:41.715Z,2.10
2018-12-08T20:54:11.678Z,1.85
2018-12-08T20:56:41.802Z,1.72
2018-12-08T20:59:11.816Z,1.70
2018-12-08T21:01:41.937Z,2.10
2018-12-08T21:04:12.075Z,1.42
2018-12-08T21:06:42.161Z,1.32
2018-12-08T21:09:12.292Z,1.35
2018-12-08T21:11:43.062Z,1.52
2018-12-08T21:14:12.973Z,1.75
2018-12-08T21:16:43.263Z,1.45
2018-12-08T21:19:13.282Z,1.17
2018-12-08T21:21:43.297Z,1.45
2018-12-08T21:24:13.278Z,1.27
2018-12-08T21:26:43.478Z,0.90
2018-12-08T21:29:14.816Z,1.10
2018-12-08T21:31:45.038Z,0.85
2018-12-08T21:34:15.039Z,1.10
2018-12-08T21:36:45.123Z,1.42
2018-12-08T21:39:15.163Z,1.02
2018-12-08T21:41:45.042Z,0.80
2018-12-08T21:44:15.043Z,0.90
2018-12-08T21:46:45.094Z,1.00
2018-12-08T21:49:15.110Z,1.00
2018-12-08T21:51:45.046Z,0.80
2018-12-08T21:54:15.043Z,1.20
2018-12-08T21:56:45.037Z,1.20
2018-12-08T21:59:15.475Z,1.00
2018-12-08T22:01:45.597Z,0.88
2018-12-08T22:04:15.610Z,1.35
2018-12-08T22:06:45.623Z,0.98
2018-12-08T22:09:15.615Z,1.10
2018-12-08T22:11:45.590Z,0.90
2018-12-08T22:14:15.574Z,0.80
2018-12-08T22:16:45.665Z,0.70
2018-12-08T22:19:15.718Z,0.90
2018-12-08T22:21:45.699Z,0.70
2018-12-08T22:24:15.676Z,0.55
2018-12-08T22:26:45.696Z,0.72
2018-12-08T22:29:15.783Z,0.90
2018-12-08T22:31:45.881Z,0.70
2018-12-08T22:34:15.908Z,0.80
2018-12-08T22:36:45.824Z,0.78
2018-12-08T22:39:15.947Z,0.60
2018-12-08T22:41:45.940Z,0.62
2018-12-08T22:44:15.936Z,0.60
2018-12-08T22:46:45.911Z,0.50
2018-12-08T22:49:15.906Z,0.70
2018-12-08T22:51:45.823Z,0.50
2018-12-08T22:54:15.769Z,0.60
2018-12-08T22:56:45.730Z,0.80
2018-12-08T22:59:15.727Z,0.50
2018-12-08T23:01:45.703Z,0.50
2018-12-08T23:04:15.688Z,0.28
2018-12-08T23:07:02.023Z,0.55
2018-12-08T23:09:32.223Z,0.33
2018-12-08T23:12:02.337Z,0.37
2018-12-08T23:14:32.290Z,0.50
2018-12-08T23:17:02.226Z,0.35
2018-12-08T23:19:32.135Z,0.33
2018-12-08T23:22:02.150Z,0.30
2018-12-08T23:24:32.178Z,0.30
2018-12-08T23:27:02.222Z,0.30
2018-12-08T23:29:32.229Z,0.30
2018-12-08T23:32:02.195Z,0.20
2018-12-08T23:34:32.222Z,0.30
2018-12-08T23:37:02.384Z,0.50
2018-12-08T23:39:38.931Z,0.23
2018-12-08T23:42:04.873Z,0.50
2018-12-08T23:44:34.826Z,0.40
2018-12-08T23:47:05.246Z,0.30
2018-12-08T23:49:35.335Z,0.30
2018-12-08T23:52:05.355Z,0.20
2018-12-08T23:54:35.387Z,0.30
2018-12-08T23:57:05.460Z,0.35
2018-12-08T23:59:35.518Z,0.20
